Time;durP1;ratioP1;P1;durP2;ratioP2;P2;SDS_P1;SDS_P2;PMS_P1;PMS_P2;Temp;Humidity;BMP_temperature;BMP_pressure;BME280_temperature;BME280_humidity;BME280_pressure;Samples;Min_cycle;Max_cycle;Signal;HPM_P1;HPM_P2
2023/05/17 00:03:08;;;;;;;;;;;;;;;19.92;48.50;95726.59;10246765;28;1923;-63
2023/05/17 00:08:08;;;;;;;;;;;;;;;19.92;48.41;95729.22;10250144;28;1883;-63
2023/05/17 00:13:08;;;;;;;;;;;;;;;19.91;48.34;95731.06;10244041;28;1819;-63
2023/05/17 00:18:08;;;;;;;;;;;;;;;19.91;48.33;95738.16;10245907;28;1837;-63
2023/05/17 00:23:09;;;;;;;;;;;;;;;19.91;48.45;95741.59;10241338;28;1914;-63
2023/05/17 00:28:09;;;;;;;;;;;;;;;19.89;48.30;95753.44;10245576;28;1883;-63
2023/05/17 00:33:09;;;;;;;;;;;;;;;19.89;48.49;95758.69;10233898;28;1964;-63
2023/05/17 00:38:09;;;;;;;;;;;;;;;19.89;48.36;95758.69;10242036;28;1899;-63
2023/05/17 00:43:10;;;;;;;;;;;;;;;19.89;48.34;95761.31;10243116;28;4792;-63
2023/05/17 00:48:10;;;;;;;;;;;;;;;19.87;48.14;95764.22;10239951;28;2090;-63
2023/05/17 00:53:14;;;;;;;;;;;;;;;19.85;48.30;95757.66;10246100;28;1890;-63
2023/05/17 00:58:15;;;;;;;;;;;;;;;19.85;48.28;95761.06;10235595;28;2002;-63
2023/05/17 01:03:15;;;;;;;;;;;;;;;19.84;48.25;95762.16;10239904;28;2091;-63
2023/05/17 01:08:15;;;;;;;;;;;;;;;19.83;48.13;95765.81;10238786;28;1871;-63
2023/05/17 01:13:22;;;;;;;;;;;;;;;19.82;48.04;95769.53;10238419;28;1906;-63
2023/05/17 01:18:24;;;;;;;;;;;;;;;19.82;48.17;95769.53;10238178;28;1925;-63
2023/05/17 01:23:31;;;;;;;;;;;;;;;19.83;48.18;95770.28;10240074;28;1941;-63
2023/05/17 01:28:31;;;;;;;;;;;;;;;19.83;48.32;95775.53;10245554;28;1874;-63
2023/05/17 01:33:31;;;;;;;;;;;;;;;19.81;47.88;95782.91;10237709;28;2074;-63
2023/05/17 01:38:31;;;;;;;;;;;;;;;19.79;48.00;95785.03;10243070;28;1941;-63
2023/05/17 01:43:44;;;;;;;;;;;;;;;19.79;47.88;95785.03;10240900;28;4528;-63
2023/05/17 01:48:48;;;;;;;;;;;;;;;19.78;48.02;95788.72;10239276;28;1907;-63
2023/05/17 01:53:51;;;;;;;;;;;;;;;19.78;48.15;95791.34;10235643;28;1945;-63
2023/05/17 01:58:51;;;;;;;;;;;;;;;19.79;47.92;95798.97;10239306;28;1911;-62
2023/05/17 02:03:52;;;;;;;;;;;;;;;19.76;47.95;95796.09;10229419;28;1972;-63
2023/05/17 02:08:52;;;;;;;;;;;;;;;19.77;47.99;95803.72;10238916;28;1848;-62
2023/05/17 02:13:52;;;;;;;;;;;;;;;19.76;48.01;95796.09;10237426;28;1907;-63
2023/05/17 02:18:53;;;;;;;;;;;;;;;19.74;47.85;95803.47;10236846;28;1943;-62
2023/05/17 02:23:53;;;;;;;;;;;;;;;19.73;48.09;95796.63;10236409;28;2055;-63
2023/05/17 02:28:53;;;;;;;;;;;;;;;19.74;47.75;95803.47;10241249;28;1854;-63
2023/05/17 02:33:53;;;;;;;;;;;;;;;19.73;47.86;95801.88;10237464;28;1903;-63
2023/05/17 02:38:54;;;;;;;;;;;;;;;19.73;47.89;95800.03;10236020;28;2155;-63
2023/05/17 02:43:54;;;;;;;;;;;;;;;19.72;47.67;95808.22;10238209;28;4413;-63
2023/05/17 02:48:54;;;;;;;;;;;;;;;19.71;48.00;95806.63;10240442;28;1856;-63
2023/05/17 02:53:55;;;;;;;;;;;;;;;19.70;47.71;95812.94;10238413;28;1911;-63
2023/05/17 02:58:56;;;;;;;;;;;;;;;19.70;47.81;95818.22;10245315;28;1828;-63
2023/05/17 03:03:56;;;;;;;;;;;;;;;19.70;47.70;95818.22;10238057;28;1918;-63
2023/05/17 03:08:56;;;;;;;;;;;;;;;19.69;47.58;95833.19;10235072;28;1839;-63
2023/05/17 03:13:57;;;;;;;;;;;;;;;19.67;47.71;95831.88;10240120;28;1886;-63
2023/05/17 03:18:57;;;;;;;;;;;;;;;19.66;47.50;95843.47;10236582;28;2063;-63
2023/05/17 03:23:57;;;;;;;;;;;;;;;19.67;47.75;95852.91;10229771;28;1954;-63
2023/05/17 03:28:57;;;;;;;;;;;;;;;19.66;47.58;95851.34;10235019;28;1867;-63
2023/05/17 03:33:58;;;;;;;;;;;;;;;19.65;47.59;95855.00;10247737;28;1882;-63
2023/05/17 03:38:58;;;;;;;;;;;;;;;19.64;47.48;95867.38;10245194;28;1860;-63
2023/05/17 03:43:58;;;;;;;;;;;;;;;19.65;47.48;95878.69;10241125;28;4494;-63
2023/05/17 03:48:58;;;;;;;;;;;;;;;19.64;47.47;95877.13;10243732;28;1829;-62
2023/05/17 03:53:59;;;;;;;;;;;;;;;19.63;47.68;95878.16;10247417;28;1742;-63
2023/05/17 03:58:59;;;;;;;;;;;;;;;19.63;47.34;95888.69;10243972;28;2036;-63
2023/05/17 04:04:02;;;;;;;;;;;;;;;19.61;47.49;95899.47;10244371;28;1979;-63
2023/05/17 04:09:03;;;;;;;;;;;;;;;19.61;47.53;95909.19;10243545;28;1898;-63
2023/05/17 04:14:03;;;;;;;;;;;;;;;19.63;47.33;95918.41;10243544;29;1913;-63
2023/05/17 04:19:04;;;;;;;;;;;;;;;19.67;47.49;95919.44;10244132;28;1820;-64
2023/05/17 04:24:04;;;;;;;;;;;;;;;19.75;47.51;95931.28;10244239;28;1915;-62
2023/05/17 04:29:05;;;;;;;;;;;;;;;19.84;47.28;95929.72;10242395;28;1819;-63
2023/05/17 04:34:06;;;;;;;;;;;;;;;19.92;47.09;95931.81;10242139;28;1856;-63
2023/05/17 04:39:07;;;;;;;;;;;;;;;19.98;47.25;95942.06;10241710;28;2109;-63
2023/05/17 04:44:07;;;;;;;;;;;;;;;20.03;47.23;95952.56;10242718;28;4495;-63
2023/05/17 04:49:07;;;;;;;;;;;;;;;20.08;47.00;95957.84;10243237;28;1855;-63
2023/05/17 04:54:08;;;;;;;;;;;;;;;20.09;46.60;95958.63;10241347;28;1848;-63
2023/05/17 04:59:08;;;;;;;;;;;;;;;20.12;46.83;95958.09;10242885;29;1805;-63
2023/05/17 05:04:08;;;;;;;;;;;;;;;20.17;46.66;95969.38;10243185;28;1907;-63
2023/05/17 05:09:08;;;;;;;;;;;;;;;20.19;46.44;95971.78;10240217;28;2008;-63
2023/05/17 05:14:09;;;;;;;;;;;;;;;20.21;46.57;95970.50;10239110;28;1930;-63
2023/05/17 05:19:09;;;;;;;;;;;;;;;20.26;46.33;95982.84;10243651;28;1802;-63
2023/05/17 05:24:09;;;;;;;;;;;;;;;20.27;46.42;95984.44;10243502;28;1914;-63
2023/05/17 05:29:09;;;;;;;;;;;;;;;20.32;46.29;95981.00;10234747;28;1904;-62
2023/05/17 05:34:10;;;;;;;;;;;;;;;20.35;46.27;95988.34;10239274;28;2158;-62
2023/05/17 05:39:11;;;;;;;;;;;;;;;20.36;46.08;95985.44;10240681;28;1891;-62
2023/05/17 05:44:11;;;;;;;;;;;;;;;20.38;46.29;95993.09;10243958;28;4396;-61
2023/05/17 05:49:11;;;;;;;;;;;;;;;20.42;46.09;95988.88;10239897;28;2097;-62
2023/05/17 05:54:12;;;;;;;;;;;;;;;20.47;46.46;95996.75;10241645;28;1785;-64
2023/05/17 05:59:12;;;;;;;;;;;;;;;20.49;46.42;95987.53;10241701;28;1752;-62
2023/05/17 06:04:13;;;;;;;;;;;;;;;20.50;46.57;95996.22;10237766;28;1914;-62
2023/05/17 06:09:13;;;;;;;;;;;;;;;20.56;46.45;95998.59;10238429;28;2027;-61
2023/05/17 06:14:13;;;;;;;;;;;;;;;20.57;46.51;96008.06;10240985;28;1895;-61
2023/05/17 06:19:14;;;;;;;;;;;;;;;20.61;46.62;96014.38;10243770;28;1820;-62
2023/05/17 06:24:15;;;;;;;;;;;;;;;20.63;46.59;96020.16;10239569;28;2031;-62
2023/05/17 06:29:15;;;;;;;;;;;;;;;20.67;46.39;96018.56;10239090;28;2048;-62
2023/05/17 06:34:16;;;;;;;;;;;;;;;20.70;46.34;96023.31;10238415;28;1895;-62
2023/05/17 06:39:16;;;;;;;;;;;;;;;20.76;46.35;96018.81;10237144;28;1979;-61
2023/05/17 06:44:16;;;;;;;;;;;;;;;20.79;46.43;96015.66;10225633;28;4448;-60
2023/05/17 06:49:16;;;;;;;;;;;;;;;20.87;46.45;96023.81;10225115;28;1875;-63
2023/05/17 06:54:18;;;;;;;;;;;;;;;20.91;46.49;96035.38;10228959;28;1867;-62
2023/05/17 06:59:18;;;;;;;;;;;;;;;20.94;46.39;96029.56;10226907;28;1772;-62
2023/05/17 07:04:19;;;;;;;;;;;;;;;20.97;46.51;96029.03;10229570;28;1976;-62
2023/05/17 07:09:19;;;;;;;;;;;;;;;20.98;46.48;96040.34;10227675;28;1840;-62
2023/05/17 07:14:20;;;;;;;;;;;;;;;21.01;46.60;96045.88;10224058;28;1935;-61
2023/05/17 07:19:20;;;;;;;;;;;;;;;21.01;46.62;96050.38;10223288;28;1853;-63
2023/05/17 07:24:20;;;;;;;;;;;;;;;21.01;46.44;96048.53;10225582;28;1926;-62
2023/05/17 07:29:20;;;;;;;;;;;;;;;20.98;46.88;96051.69;10229279;28;2108;-62
2023/05/17 07:34:21;;;;;;;;;;;;;;;20.99;46.60;96063.81;10225610;28;1852;-63
2023/05/17 07:39:21;;;;;;;;;;;;;;;20.95;46.64;96068.03;10227980;28;1884;-62
2023/05/17 07:44:21;;;;;;;;;;;;;;;20.92;46.63;96058.03;10222391;28;4406;-61
2023/05/17 07:49:22;;;;;;;;;;;;;;;20.86;46.74;96061.72;10226598;28;1884;-61
2023/05/17 07:54:26;;;;;;;;;;;;;;;20.87;46.70;96054.63;10226717;28;1776;-61
2023/05/17 07:59:26;;;;;;;;;;;;;;;20.85;46.66;96068.06;10227660;28;1824;-61
2023/05/17 08:04:26;;;;;;;;;;;;;;;20.83;46.47;96059.66;10224404;28;1918;-60
2023/05/17 08:09:27;;;;;;;;;;;;;;;20.81;46.88;96061.72;10228990;28;1906;-61
2023/05/17 08:14:27;;;;;;;;;;;;;;;20.80;46.89;96054.09;10228097;28;1967;-61
2023/05/17 08:19:27;;;;;;;;;;;;;;;20.78;46.83;96067.56;10226199;28;1946;-62
2023/05/17 08:24:27;;;;;;;;;;;;;;;20.75;46.90;96067.31;10233123;28;2190;-62
2023/05/17 08:29:28;;;;;;;;;;;;;;;20.74;47.06;96065.72;10230909;28;1894;-61
2023/05/17 08:34:28;;;;;;;;;;;;;;;20.70;46.93;96068.09;10229870;28;1984;-62
2023/05/17 08:39:28;;;;;;;;;;;;;;;20.70;47.01;96069.94;10227516;28;4397;-61
2023/05/17 08:44:28;;;;;;;;;;;;;;;20.66;47.35;96084.69;10228750;28;1998;-62
2023/05/17 08:49:30;;;;;;;;;;;;;;;20.65;47.23;96083.13;10231470;28;1924;-61
2023/05/17 08:54:31;;;;;;;;;;;;;;;20.63;47.46;96078.09;10233125;28;1859;-61
2023/05/17 08:59:32;;;;;;;;;;;;;;;20.61;47.44;96077.59;10230019;28;2074;-61
2023/05/17 09:04:32;;;;;;;;;;;;;;;20.60;47.64;96089.19;10232949;28;1973;-61
2023/05/17 09:09:33;;;;;;;;;;;;;;;20.59;47.58;96094.69;10230960;28;1831;-62
2023/05/17 09:14:34;;;;;;;;;;;;;;;20.58;47.29;96104.47;10229497;28;1844;-61
2023/05/17 09:19:35;;;;;;;;;;;;;;;20.58;47.54;96101.84;10228683;28;2024;-60
2023/05/17 09:24:35;;;;;;;;;;;;;;;20.55;47.58;96104.97;10224269;29;2319;-61
2023/05/17 09:29:36;;;;;;;;;;;;;;;20.53;47.75;96106.28;10224856;28;1884;-61
2023/05/17 09:34:37;;;;;;;;;;;;;;;20.51;47.50;96106.56;10224739;28;1910;-61
2023/05/17 09:39:37;;;;;;;;;;;;;;;20.51;47.45;96103.13;10229238;28;4366;-60
2023/05/17 09:44:44;;;;;;;;;;;;;;;20.49;47.49;96107.88;10223687;28;1988;-61
2023/05/17 09:49:45;;;;;;;;;;;;;;;20.48;47.47;96099.22;10230033;28;1808;-62
2023/05/17 09:54:55;;;;;;;;;;;;;;;20.43;47.35;96096.56;10227935;28;1817;-61
2023/05/17 09:59:56;;;;;;;;;;;;;;;20.46;47.25;96100.53;10223419;28;1903;-60
2023/05/17 10:04:57;;;;;;;;;;;;;;;20.42;47.35;96100.25;10228782;28;1906;-62
2023/05/17 10:09:57;;;;;;;;;;;;;;;20.39;47.48;96100.78;10229523;28;1910;-62
2023/05/17 10:14:58;;;;;;;;;;;;;;;20.38;47.45;96104.44;10223978;28;2092;-62
2023/05/17 10:19:58;;;;;;;;;;;;;;;20.37;47.20;96102.09;10223933;28;1977;-62
2023/05/17 10:24:59;;;;;;;;;;;;;;;20.33;47.35;96104.47;10235372;28;1907;-63
2023/05/17 10:29:59;;;;;;;;;;;;;;;20.34;47.33;96086.84;10237751;28;1907;-62
2023/05/17 10:34:59;;;;;;;;;;;;;;;20.33;47.39;96079.97;10237454;28;1934;-63
2023/05/17 10:40:00;;;;;;;;;;;;;;;20.30;47.13;96088.41;10238766;28;4563;-63
2023/05/17 10:45:00;;;;;;;;;;;;;;;20.27;47.09;96090.53;10241466;28;1911;-63
2023/05/17 10:50:00;;;;;;;;;;;;;;;20.27;47.12;96087.09;10225270;28;1788;-61
2023/05/17 10:55:01;;;;;;;;;;;;;;;20.26;47.20;96091.56;10237796;28;1805;-62
2023/05/17 11:00:03;;;;;;;;;;;;;;;20.26;47.23;96088.13;10236988;28;1843;-62
2023/05/17 11:05:04;;;;;;;;;;;;;;;20.24;46.95;96087.59;10238606;28;1919;-63
2023/05/17 11:10:07;;;;;;;;;;;;;;;20.23;47.19;96070.25;10237417;28;2102;-62
2023/05/17 11:15:09;;;;;;;;;;;;;;;20.21;47.11;96062.63;10237037;29;1824;-62
2023/05/17 11:20:28;;;;;;;;;;;;;;;20.22;47.05;96068.66;10239434;28;1843;-62
2023/05/17 11:25:34;;;;;;;;;;;;;;;20.20;47.26;96079.44;10236454;29;1974;-62
2023/05/17 11:30:38;;;;;;;;;;;;;;;20.19;47.29;96063.91;10238978;28;1910;-62
2023/05/17 11:35:39;;;;;;;;;;;;;;;20.18;47.30;96064.94;10236448;29;1923;-62
2023/05/17 11:40:39;;;;;;;;;;;;;;;20.16;47.30;96062.56;10234834;28;4437;-62
2023/05/17 11:45:43;;;;;;;;;;;;;;;20.16;47.09;96074.94;10241739;28;1981;-62
2023/05/17 11:50:44;;;;;;;;;;;;;;;20.16;47.32;96075.72;10238093;28;1852;-61
2023/05/17 11:55:49;;;;;;;;;;;;;;;20.15;47.10;96081.28;10246628;28;1847;-62
2023/05/17 12:00:53;;;;;;;;;;;;;;;20.16;47.29;96069.69;10239242;28;1861;-62
2023/05/17 12:06:11;;;;;;;;;;;;;;;20.15;47.09;96076.00;10242345;28;2171;-63
2023/05/17 12:11:16;;;;;;;;;;;;;;;20.14;47.11;96074.41;10243390;28;1876;-62
2023/05/17 12:16:16;;;;;;;;;;;;;;;20.12;47.17;96072.03;10246911;28;1844;-62
2023/05/17 12:21:17;;;;;;;;;;;;;;;20.13;47.29;96070.22;10243716;28;1996;-62
2023/05/17 12:26:17;;;;;;;;;;;;;;;20.12;47.07;96079.94;10228125;28;1823;-62
2023/05/17 12:31:19;;;;;;;;;;;;;;;20.12;47.26;96079.16;10237318;28;1887;-62
2023/05/17 12:36:19;;;;;;;;;;;;;;;20.09;47.06;96080.44;10250376;28;1777;-62
2023/05/17 12:41:21;;;;;;;;;;;;;;;20.09;47.38;96079.69;10242109;28;4697;-62
2023/05/17 12:46:21;;;;;;;;;;;;;;;20.06;47.30;96075.72;10246076;28;1902;-62
2023/05/17 12:51:22;;;;;;;;;;;;;;;20.08;47.24;96075.47;10245378;28;1769;-63
2023/05/17 12:56:23;;;;;;;;;;;;;;;20.05;47.10;96078.63;10245040;28;1877;-62
2023/05/17 13:01:23;;;;;;;;;;;;;;;20.04;47.22;96082.31;10242332;28;2050;-62
2023/05/17 13:06:23;;;;;;;;;;;;;;;20.02;47.42;96079.16;10244927;28;2170;-62
2023/05/17 13:11:24;;;;;;;;;;;;;;;20.03;47.21;96072.84;10235233;28;2012;-60
2023/05/17 13:16:28;;;;;;;;;;;;;;;20.03;47.18;96062.31;10242188;28;1879;-62
2023/05/17 13:21:28;;;;;;;;;;;;;;;20.02;47.08;96071.25;10242830;28;1977;-63
2023/05/17 13:26:28;;;;;;;;;;;;;;;20.00;47.16;96073.34;10240762;28;1869;-62
2023/05/17 13:31:28;;;;;;;;;;;;;;;20.01;47.23;96077.59;10234581;28;2055;-62
2023/05/17 13:36:29;;;;;;;;;;;;;;;19.98;47.12;96075.47;10241544;28;1919;-62
2023/05/17 13:41:30;;;;;;;;;;;;;;;19.97;45.65;96077.28;10225322;28;4378;-62
2023/05/17 13:46:30;;;;;;;;;;;;;;;19.96;46.52;96077.56;10240134;28;1875;-62
2023/05/17 13:51:30;;;;;;;;;;;;;;;19.99;46.73;96077.81;10239845;28;1848;-62
2023/05/17 13:56:31;;;;;;;;;;;;;;;20.02;46.04;96084.41;10248647;28;2008;-62
2023/05/17 14:01:31;;;;;;;;;;;;;;;19.96;44.49;96077.56;10241238;28;2078;-62
2023/05/17 14:06:31;;;;;;;;;;;;;;;19.93;44.13;96070.19;10248563;28;1432;-61
2023/05/17 14:11:31;;;;;;;;;;;;;;;19.90;42.84;96076.78;10246724;28;1526;-61
2023/05/17 14:16:32;;;;;;;;;;;;;;;19.90;42.93;96076.78;10243598;28;1437;-61
2023/05/17 14:21:32;;;;;;;;;;;;;;;19.89;42.08;96064.66;10246349;28;1902;-61
2023/05/17 14:26:32;;;;;;;;;;;;;;;19.98;42.76;96063.09;10246937;28;1512;-61
2023/05/17 14:31:33;;;;;;;;;;;;;;;20.13;43.67;96070.22;10240379;28;1647;-61
2023/05/17 14:36:35;;;;;;;;;;;;;;;20.23;44.12;96064.97;10245823;28;1600;-62
2023/05/17 14:41:35;;;;;;;;;;;;;;;20.33;44.41;96064.19;10246088;28;4433;-61
2023/05/17 14:46:35;;;;;;;;;;;;;;;20.39;44.59;96063.91;10249717;28;1809;-62
2023/05/17 14:51:36;;;;;;;;;;;;;;;20.47;44.68;96059.94;10237954;28;1545;-62
2023/05/17 14:56:36;;;;;;;;;;;;;;;20.51;44.80;96061.78;10245634;28;2123;-62
2023/05/17 15:01:36;;;;;;;;;;;;;;;20.58;44.67;96072.84;10237681;28;1964;-62
2023/05/17 15:06:37;;;;;;;;;;;;;;;20.61;44.82;96077.59;10238794;28;1943;-61
2023/05/17 15:11:38;;;;;;;;;;;;;;;20.62;44.96;96071.28;10240312;28;1854;-64
2023/05/17 15:16:38;;;;;;;;;;;;;;;20.69;44.89;96074.41;10235926;28;1524;-62
2023/05/17 15:21:38;;;;;;;;;;;;;;;20.74;44.89;96071.78;10240577;28;1907;-64
2023/05/17 15:26:38;;;;;;;;;;;;;;;20.77;44.79;96076.50;10245039;28;1440;-64
2023/05/17 15:31:39;;;;;;;;;;;;;;;20.78;44.94;96075.47;10245777;28;1418;-64
2023/05/17 15:36:39;;;;;;;;;;;;;;;20.79;44.81;96078.88;10250395;28;1449;-64
2023/05/17 15:41:42;;;;;;;;;;;;;;;20.81;45.17;96082.03;10248860;28;4491;-63
2023/05/17 15:46:42;;;;;;;;;;;;;;;20.80;45.06;96072.53;10248296;28;1851;-63
2023/05/17 15:51:42;;;;;;;;;;;;;;;20.77;45.15;96076.50;10245892;28;2006;-63
2023/05/17 15:56:43;;;;;;;;;;;;;;;20.77;45.06;96079.13;10251274;28;1347;-63
2023/05/17 16:01:45;;;;;;;;;;;;;;;20.76;45.22;96085.47;10248652;28;1906;-62
2023/05/17 16:06:45;;;;;;;;;;;;;;;20.76;45.09;96088.09;10246776;28;1582;-63
2023/05/17 16:11:45;;;;;;;;;;;;;;;20.75;45.01;96081.25;10246744;28;1472;-63
2023/05/17 16:16:46;;;;;;;;;;;;;;;20.71;45.35;96085.47;10225714;28;1515;-64
2023/05/17 16:21:46;;;;;;;;;;;;;;;20.71;45.10;96088.09;10230670;28;1910;-63
2023/05/17 16:26:47;;;;;;;;;;;;;;;20.68;45.05;96090.47;10229345;28;1536;-63
2023/05/17 16:31:47;;;;;;;;;;;;;;;20.66;45.28;96100.50;10233150;28;1488;-63
2023/05/17 16:36:49;;;;;;;;;;;;;;;20.66;45.31;96100.50;10232967;28;1519;-63
2023/05/17 16:41:51;;;;;;;;;;;;;;;20.63;44.99;96106.31;10232419;28;4392;-65
2023/05/17 16:46:51;;;;;;;;;;;;;;;20.61;45.36;96114.47;10227212;28;1717;-63
2023/05/17 16:51:51;;;;;;;;;;;;;;;20.59;45.32;96113.94;10232839;28;2090;-64
2023/05/17 16:56:52;;;;;;;;;;;;;;;20.58;45.34;96124.75;10228764;28;1691;-64
2023/05/17 17:01:52;;;;;;;;;;;;;;;20.55;45.15;96131.31;10226766;28;2007;-63
2023/05/17 17:06:52;;;;;;;;;;;;;;;20.53;45.36;96125.53;10227439;29;1919;-64
2023/05/17 17:11:52;;;;;;;;;;;;;;;20.52;45.49;96131.88;10224927;28;1875;-64
2023/05/17 17:16:53;;;;;;;;;;;;;;;20.51;45.40;96132.91;10227355;28;1800;-64
2023/05/17 17:21:53;;;;;;;;;;;;;;;20.49;45.25;96131.56;10229000;28;1971;-63
2023/05/17 17:26:53;;;;;;;;;;;;;;;20.48;45.38;96140.53;10225993;28;1898;-64
2023/05/17 17:31:54;;;;;;;;;;;;;;;20.46;45.43;96137.38;10223813;28;1849;-65
2023/05/17 17:36:54;;;;;;;;;;;;;;;20.44;45.46;96150.81;10224670;28;1872;-64
2023/05/17 17:41:54;;;;;;;;;;;;;;;20.43;45.56;96148.44;10222017;28;4440;-63
2023/05/17 17:46:55;;;;;;;;;;;;;;;20.39;45.58;96152.63;10224184;28;1992;-61
2023/05/17 17:51:56;;;;;;;;;;;;;;;20.39;45.69;96150.81;10219257;28;1837;-63
2023/05/17 17:56:57;;;;;;;;;;;;;;;20.38;45.62;96156.34;10221838;28;1842;-63
2023/05/17 18:01:58;;;;;;;;;;;;;;;20.39;45.72;96163.97;10232305;28;1906;-62
2023/05/17 18:07:00;;;;;;;;;;;;;;;20.38;45.46;96170.28;10240041;28;1895;-62
2023/05/17 18:12:00;;;;;;;;;;;;;;;20.34;45.32;96165.81;10232520;28;1973;-62
2023/05/17 18:17:01;;;;;;;;;;;;;;;20.31;45.49;96180.28;10232161;28;1951;-62
2023/05/17 18:22:01;;;;;;;;;;;;;;;20.30;45.15;96191.09;10235932;28;1907;-62
2023/05/17 18:27:01;;;;;;;;;;;;;;;20.27;45.43;96181.84;10238041;28;2035;-62
2023/05/17 18:32:02;;;;;;;;;;;;;;;20.26;45.19;96191.59;10237081;28;1804;-62
2023/05/17 18:37:02;;;;;;;;;;;;;;;20.26;45.54;96203.97;10238297;28;1908;-63
2023/05/17 18:42:02;;;;;;;;;;;;;;;20.27;45.87;96202.91;10239769;28;4521;-61
2023/05/17 18:47:03;;;;;;;;;;;;;;;20.29;45.94;96211.34;10236657;28;1800;-63
2023/05/17 18:52:04;;;;;;;;;;;;;;;20.27;45.84;96214.25;10234988;28;1905;-66
2023/05/17 18:57:04;;;;;;;;;;;;;;;20.26;45.67;96217.91;10232460;28;1863;-67
2023/05/17 19:02:05;;;;;;;;;;;;;;;20.25;45.64;96216.34;10232108;28;1898;-63
2023/05/17 19:07:05;;;;;;;;;;;;;;;20.25;45.26;96215.56;10236751;28;1889;-62
2023/05/17 19:12:06;;;;;;;;;;;;;;;20.23;45.43;96217.66;10237900;28;1846;-65
2023/05/17 19:17:07;;;;;;;;;;;;;;;20.23;45.87;96225.56;10243006;28;1717;-66
2023/05/17 19:22:09;;;;;;;;;;;;;;;20.23;46.63;96223.72;10242796;28;1906;-66
2023/05/17 19:27:09;;;;;;;;;;;;;;;20.25;47.06;96236.63;10233953;28;1671;-63
2023/05/17 19:32:10;;;;;;;;;;;;;;;20.24;47.31;96250.81;10228262;28;1902;-63
2023/05/17 19:37:10;;;;;;;;;;;;;;;20.22;47.10;96243.19;10234976;28;2015;-63
2023/05/17 19:42:10;;;;;;;;;;;;;;;20.20;47.51;96247.91;10237922;28;4386;-63
2023/05/17 19:47:10;;;;;;;;;;;;;;;20.19;47.34;96248.16;10239945;28;1868;-63
2023/05/17 19:52:11;;;;;;;;;;;;;;;20.17;47.45;96250.25;10235445;28;1925;-63
2023/05/17 19:57:11;;;;;;;;;;;;;;;20.16;47.41;96254.72;10242959;28;1860;-63
2023/05/17 20:02:11;;;;;;;;;;;;;;;20.15;47.61;96249.72;10233589;28;1981;-63
2023/05/17 20:07:11;;;;;;;;;;;;;;;20.12;47.64;96244.97;10235039;28;1935;-63
2023/05/17 20:12:12;;;;;;;;;;;;;;;20.10;47.70;96247.84;10240309;28;2028;-63
2023/05/17 20:17:12;;;;;;;;;;;;;;;20.08;47.34;96247.31;10242842;28;1860;-63
2023/05/17 20:22:12;;;;;;;;;;;;;;;20.08;47.32;96241.25;10240329;28;2079;-63
2023/05/17 20:27:14;;;;;;;;;;;;;;;20.07;47.34;96256.25;10240897;28;2047;-64
2023/05/17 20:32:14;;;;;;;;;;;;;;;20.05;47.51;96260.97;10240740;28;2128;-65
2023/05/17 20:37:15;;;;;;;;;;;;;;;20.02;47.30;96261.50;10246294;28;1899;-64
2023/05/17 20:42:16;;;;;;;;;;;;;;;20.01;47.24;96256.50;10226409;28;1898;-64
2023/05/17 20:47:17;;;;;;;;;;;;;;;20.01;47.29;96259.16;10240965;28;1921;-64
2023/05/17 20:52:17;;;;;;;;;;;;;;;19.98;47.41;96252.56;10240594;28;1844;-64
2023/05/17 20:57:17;;;;;;;;;;;;;;;19.98;47.18;96251.75;10241355;28;1821;-64
2023/05/17 21:02:18;;;;;;;;;;;;;;;19.97;47.11;96256.22;10239081;28;2205;-64
2023/05/17 21:07:18;;;;;;;;;;;;;;;19.96;47.05;96261.75;10238767;28;2095;-64
2023/05/17 21:12:19;;;;;;;;;;;;;;;19.94;47.07;96258.56;10240185;28;1963;-64
2023/05/17 21:17:19;;;;;;;;;;;;;;;19.93;47.20;96260.41;10242350;28;1825;-64
2023/05/17 21:22:19;;;;;;;;;;;;;;;19.91;47.00;96261.72;10239826;28;1927;-64
2023/05/17 21:27:20;;;;;;;;;;;;;;;19.90;46.92;96265.41;10240177;28;1886;-64
2023/05/17 21:32:20;;;;;;;;;;;;;;;19.90;47.04;96268.03;10239426;28;2019;-64
2023/05/17 21:37:20;;;;;;;;;;;;;;;19.88;47.09;96262.25;10239052;28;1897;-64
2023/05/17 21:42:20;;;;;;;;;;;;;;;19.87;46.89;96258.00;10243947;28;4566;-65
2023/05/17 21:47:22;;;;;;;;;;;;;;;19.86;46.86;96256.44;10244977;28;1861;-63
2023/05/17 21:52:22;;;;;;;;;;;;;;;19.86;46.86;96253.81;10239379;28;2074;-65
2023/05/17 21:57:23;;;;;;;;;;;;;;;19.83;46.77;96254.31;10240050;28;2095;-65
2023/05/17 22:02:23;;;;;;;;;;;;;;;19.82;46.86;96258.81;10239079;28;1915;-65
2023/05/17 22:07:23;;;;;;;;;;;;;;;19.81;46.77;96256.41;10240687;28;1990;-64
2023/05/17 22:12:26;;;;;;;;;;;;;;;19.79;46.90;96263.75;10237892;28;1964;-63
2023/05/17 22:17:28;;;;;;;;;;;;;;;19.80;46.63;96249.56;10238109;28;1911;-64
2023/05/17 22:22:30;;;;;;;;;;;;;;;19.78;46.47;96249.03;10238682;28;1903;-64
2023/05/17 22:27:30;;;;;;;;;;;;;;;19.76;46.55;96246.69;10239943;28;2033;-64
2023/05/17 22:32:30;;;;;;;;;;;;;;;19.76;46.46;96249.31;10236350;28;1939;-64
2023/05/17 22:37:31;;;;;;;;;;;;;;;19.74;46.44;96234.81;10237584;28;1900;-65
2023/05/17 22:42:31;;;;;;;;;;;;;;;19.74;46.38;96229.56;10237085;28;4497;-65
2023/05/17 22:47:32;;;;;;;;;;;;;;;19.72;46.42;96236.91;10242608;28;1836;-65
2023/05/17 22:52:32;;;;;;;;;;;;;;;19.71;46.39;96230.84;10236729;28;1911;-64
2023/05/17 22:57:33;;;;;;;;;;;;;;;19.70;46.62;96220.59;10233528;28;1914;-64
2023/05/17 23:02:33;;;;;;;;;;;;;;;19.69;46.34;96219.81;10230194;28;1915;-64
2023/05/17 23:07:37;;;;;;;;;;;;;;;19.69;46.31;96219.00;10235624;28;1924;-64
2023/05/17 23:12:37;;;;;;;;;;;;;;;19.69;46.21;96213.75;10233163;28;1907;-64
2023/05/17 23:17:37;;;;;;;;;;;;;;;19.69;46.21;96205.84;10235708;28;1827;-65
2023/05/17 23:22:38;;;;;;;;;;;;;;;19.67;46.22;96197.44;10228968;28;2336;-64
2023/05/17 23:27:38;;;;;;;;;;;;;;;19.66;46.15;96201.13;10226895;28;2063;-64
2023/05/17 23:32:38;;;;;;;;;;;;;;;19.65;46.11;96199.53;10226368;28;1973;-64
2023/05/17 23:37:39;;;;;;;;;;;;;;;19.63;46.16;96186.63;10231330;28;2154;-64
2023/05/17 23:42:39;;;;;;;;;;;;;;;19.62;46.10;96187.66;10240275;28;4505;-64
2023/05/17 23:47:40;;;;;;;;;;;;;;;19.62;46.19;96192.94;10235575;28;1960;-64
2023/05/17 23:52:42;;;;;;;;;;;;;;;19.62;45.95;96189.53;10242116;28;2003;-64
2023/05/17 23:57:42;;;;;;;;;;;;;;;19.60;46.00;96178.47;10238278;28;1875;-64
